Time;durP1;ratioP1;P1;durP2;ratioP2;P2;SDS_P1;SDS_P2;PMS_P1;PMS_P2;Temp;Humidity;BMP_temperature;BMP_pressure;BME280_temperature;BME280_humidity;BME280_pressure;Samples;Min_cycle;Max_cycle;Signal;HPM_P1;HPM_P2
2024/01/30 00:00:31;;;;;;;0.20;0.20;;;;;;;6.84;54.41;102735.38;5017434;28;20067;-42
2024/01/30 00:02:56;;;;;;;0.10;0.10;;;;;;;6.85;55.10;102739.72;5017025;28;20037;-39
2024/01/30 00:05:21;;;;;;;0.10;0.10;;;;;;;6.86;54.84;102746.69;5018627;28;20300;-40
2024/01/30 00:07:47;;;;;;;0.10;0.10;;;;;;;6.86;55.35;102739.69;5018955;28;20025;-39
2024/01/30 00:10:12;;;;;;;0.20;0.20;;;;;;;6.86;55.48;102733.59;5023753;28;20112;-39
2024/01/30 00:12:37;;;;;;;0.10;0.10;;;;;;;6.86;56.06;102742.31;5024218;28;20303;-39
2024/01/30 00:15:04;;;;;;;0.10;0.10;;;;;;;6.83;56.00;102738.88;5030157;28;20047;-39
2024/01/30 00:17:30;;;;;;;0.13;0.13;;;;;;;6.82;56.29;102734.50;5019052;28;20280;-40
2024/01/30 00:19:55;;;;;;;0.10;0.10;;;;;;;6.78;56.55;102730.19;5020134;28;20064;-40
2024/01/30 00:22:20;;;;;;;0.10;0.10;;;;;;;6.73;56.60;102727.63;5018384;28;20037;-40
2024/01/30 00:24:46;;;;;;;0.13;0.13;;;;;;;6.69;56.59;102729.41;5019136;28;20037;-39
2024/01/30 00:27:11;;;;;;;0.10;0.10;;;;;;;6.68;57.07;102730.28;5025629;28;20920;-39
2024/01/30 00:29:36;;;;;;;0.10;0.10;;;;;;;6.66;56.88;102728.53;5018669;28;20034;-39
2024/01/30 00:32:01;;;;;;;0.10;0.10;;;;;;;6.61;57.22;102733.81;5017233;28;20292;-39
2024/01/30 00:34:27;;;;;;;0.10;0.10;;;;;;;6.60;57.01;102731.25;5014451;28;20119;-41
2024/01/30 00:36:52;;;;;;;0.10;0.10;;;;;;;6.52;57.34;102729.53;5015203;28;20041;-39
2024/01/30 00:39:19;;;;;;;0.10;0.10;;;;;;;6.52;57.08;102733.91;5020718;28;20398;-39
2024/01/30 00:41:44;;;;;;;0.10;0.10;;;;;;;6.49;57.26;102723.47;5020451;28;20503;-37
2024/01/30 00:44:10;;;;;;;0.10;0.10;;;;;;;6.44;56.96;102725.25;5023173;28;20499;-36
2024/01/30 00:46:35;;;;;;;0.10;0.10;;;;;;;6.40;57.25;102730.53;5021440;28;20130;-38
2024/01/30 00:49:00;;;;;;;0.10;0.10;;;;;;;6.38;57.87;102734.91;5021891;28;20108;-36
2024/01/30 00:51:25;;;;;;;0.57;0.57;;;;;;;6.36;57.59;102723.59;5020159;28;20033;-36
2024/01/30 00:53:50;;;;;;;0.10;0.10;;;;;;;6.31;57.74;102727.97;5020867;28;20868;-38
2024/01/30 00:56:18;;;;;;;0.10;0.10;;;;;;;6.29;57.55;102727.13;5018396;28;20287;-38
2024/01/30 00:58:43;;;;;;;0.10;0.10;;;;;;;6.29;57.48;102727.13;5019561;28;20292;-37
2024/01/30 01:01:08;;;;;;;0.10;0.10;;;;;;;6.29;56.93;102723.66;5019734;28;20123;-36
2024/01/30 01:03:34;;;;;;;0.10;0.10;;;;;;;6.30;57.57;102725.38;5021161;28;20094;-36
2024/01/30 01:05:59;;;;;;;0.10;0.10;;;;;;;6.27;57.75;102728.91;5021103;28;20037;-38
2024/01/30 01:08:25;;;;;;;0.10;0.10;;;;;;;6.28;57.03;102728.00;5012455;28;20065;-37
2024/01/30 01:10:50;;;;;;;0.10;0.10;;;;;;;6.30;57.30;102738.47;5019731;28;20037;-39
2024/01/30 01:13:15;;;;;;;0.15;0.15;;;;;;;6.25;57.29;102720.19;5022126;28;20033;-39
2024/01/30 01:15:40;;;;;;;0.10;0.10;;;;;;;6.27;57.39;102730.63;5019648;28;20033;-37
2024/01/30 01:18:06;;;;;;;0.10;0.10;;;;;;;6.29;57.68;102732.34;5017239;28;20291;-36
2024/01/30 01:20:31;;;;;;;0.10;0.10;;;;;;;6.29;57.21;102729.72;5021297;28;20283;-35
2024/01/30 01:22:56;;;;;;;0.10;0.10;;;;;;;6.27;57.30;102728.91;5016290;28;20331;-37
2024/01/30 01:25:21;;;;;;;0.10;0.10;;;;;;;6.27;57.85;102734.13;5018332;28;20289;-34
2024/01/30 01:27:51;;;;;;;0.10;0.10;;;;;;;6.28;58.23;102725.38;5014888;28;20033;-37
2024/01/30 01:30:21;;;;;;;0.10;0.10;;;;;;;6.31;57.65;102733.22;5012649;28;20407;-37
2024/01/30 01:32:56;;;;;;;0.10;0.10;;;;;;;6.24;57.71;102721.94;5013342;28;20037;-37
2024/01/30 01:35:25;;;;;;;0.10;0.10;;;;;;;6.24;57.80;102719.31;5012411;28;20522;-38
2024/01/30 01:37:59;;;;;;;0.10;0.10;;;;;;;6.20;57.87;102722.81;5021223;28;20885;-36
2024/01/30 01:40:26;;;;;;;0.10;0.10;;;;;;;6.19;58.04;102725.47;5013538;28;20060;-39
2024/01/30 01:42:52;;;;;;;0.10;0.10;;;;;;;6.17;57.90;102716.75;5016791;28;20038;-38
2024/01/30 01:45:18;;;;;;;0.10;0.10;;;;;;;6.17;57.58;102716.75;5014408;28;20065;-37
2024/01/30 01:47:47;;;;;;;0.10;0.10;;;;;;;6.14;58.10;102722.88;5020222;28;20113;-36
2024/01/30 01:50:13;;;;;;;0.10;0.10;;;;;;;6.15;58.27;102718.50;5016087;28;20045;-36
2024/01/30 01:52:41;;;;;;;0.10;0.10;;;;;;;6.14;58.16;102724.63;5017711;28;20053;-37
2024/01/30 01:55:07;;;;;;;0.10;0.10;;;;;;;6.16;58.18;102712.41;5021339;28;20053;-36
2024/01/30 01:57:34;;;;;;;0.10;0.10;;;;;;;6.14;57.85;102714.16;5019088;28;20040;-37
2024/01/30 02:00:01;;;;;;;0.10;0.10;;;;;;;6.14;57.18;102711.53;5017681;28;20029;-39
2024/01/30 02:02:30;;;;;;;2.35;2.30;;;;;;;6.08;56.71;102713.34;5028166;28;20032;-40
2024/01/30 02:04:56;;;;;;;0.10;0.10;;;;;;;6.06;56.13;102709.88;5024133;28;20120;-39
2024/01/30 02:07:22;;;;;;;0.08;0.08;;;;;;;6.12;56.66;102705.50;5021903;28;20024;-44
2024/01/30 02:09:47;;;;;;;0.10;0.10;;;;;;;6.10;56.61;102706.38;5022277;28;20076;-41
2024/01/30 02:12:12;;;;;;;0.10;0.10;;;;;;;6.12;55.80;102702.88;5023245;28;20029;-36
2024/01/30 02:14:48;;;;;;;0.10;0.10;;;;;;;6.13;55.66;102702.84;5024326;28;20037;-40
2024/01/30 02:17:13;;;;;;;0.10;0.10;;;;;;;6.13;56.31;102700.25;5019560;28;20484;-37
2024/01/30 02:19:39;;;;;;;0.10;0.10;;;;;;;6.14;56.45;102698.47;5021095;28;20129;-38
2024/01/30 02:22:05;;;;;;;0.10;0.10;;;;;;;6.16;56.44;102701.94;5024486;28;20026;-38
2024/01/30 02:24:30;;;;;;;0.10;0.10;;;;;;;6.17;57.06;102701.06;5026767;28;20036;-41
2024/01/30 02:26:56;;;;;;;0.10;0.10;;;;;;;6.19;56.90;102699.31;5023267;28;20512;-39
2024/01/30 02:29:21;;;;;;;0.10;0.10;;;;;;;6.17;57.36;102696.72;5021391;28;20052;-36
2024/01/30 02:31:46;;;;;;;0.10;0.10;;;;;;;6.18;57.27;102702.81;5025663;28;20284;-38
2024/01/30 02:34:12;;;;;;;0.10;0.10;;;;;;;6.14;57.30;102701.97;5030403;28;20075;-37
2024/01/30 02:36:37;;;;;;;0.10;0.10;;;;;;;6.14;57.47;102691.53;5027846;28;20064;-41
2024/01/30 02:39:03;;;;;;;0.10;0.10;;;;;;;6.09;57.82;102688.06;5026117;28;20292;-39
2024/01/30 02:41:28;;;;;;;0.10;0.10;;;;;;;6.08;57.79;102697.66;5024402;28;20965;-39
2024/01/30 02:43:53;;;;;;;0.10;0.10;;;;;;;6.06;57.86;102693.31;5024534;28;20099;-40
2024/01/30 02:46:19;;;;;;;0.10;0.10;;;;;;;6.06;57.99;102698.53;5024273;28;20033;-41
2024/01/30 02:48:44;;;;;;;0.10;0.10;;;;;;;6.06;57.94;102698.53;5026802;28;20055;-38
2024/01/30 02:51:09;;;;;;;0.10;0.10;;;;;;;6.06;58.27;102694.19;5027032;28;20412;-38
2024/01/30 02:53:34;;;;;;;0.10;0.10;;;;;;;6.08;57.80;102697.66;5023266;28;20105;-40
2024/01/30 02:56:02;;;;;;;0.10;0.10;;;;;;;6.08;57.82;102700.28;5023217;28;20022;-39
2024/01/30 02:58:27;;;;;;;0.10;0.10;;;;;;;6.07;58.10;102701.16;5021010;28;20052;-38
2024/01/30 03:00:52;;;;;;;0.10;0.10;;;;;;;6.07;58.14;102693.31;5016180;28;20037;-42
2024/01/30 03:03:18;;;;;;;0.10;0.10;;;;;;;6.07;57.10;102695.94;5018523;28;20041;-37
2024/01/30 03:05:43;;;;;;;0.10;0.10;;;;;;;6.08;57.55;102696.78;5020546;28;20057;-39
2024/01/30 03:08:08;;;;;;;0.10;0.10;;;;;;;6.08;57.65;102696.78;5024219;28;20026;-40
2024/01/30 03:10:34;;;;;;;0.10;0.10;;;;;;;6.09;57.52;102696.78;5023973;28;20048;-36
2024/01/30 03:12:59;;;;;;;0.10;0.10;;;;;;;6.11;57.67;102691.53;5020789;28;20138;-40
2024/01/30 03:15:24;;;;;;;0.10;0.10;;;;;;;6.13;57.71;102695.00;5019821;28;20045;-40
2024/01/30 03:17:50;;;;;;;0.10;0.10;;;;;;;6.10;57.32;102690.69;5019495;28;20315;-39
2024/01/30 03:20:15;;;;;;;0.10;0.10;;;;;;;6.13;57.37;102697.63;5021252;28;20668;-40
2024/01/30 03:22:41;;;;;;;0.10;0.10;;;;;;;6.10;56.86;102688.06;5016282;28;20041;-40
2024/01/30 03:25:06;;;;;;;0.10;0.10;;;;;;;6.15;57.27;102689.75;5024333;28;20029;-39
2024/01/30 03:27:31;;;;;;;6.15;5.72;;;;;;;6.16;57.53;102683.66;5023143;28;20808;-40
2024/01/30 03:29:57;;;;;;;0.10;0.10;;;;;;;6.13;56.36;102674.09;5015621;28;20130;-38
2024/01/30 03:32:22;;;;;;;0.10;0.10;;;;;;;6.15;56.53;102676.69;5025976;28;20052;-39
2024/01/30 03:34:47;;;;;;;0.10;0.10;;;;;;;6.18;57.01;102679.28;5018940;28;20030;-40
2024/01/30 03:37:12;;;;;;;0.10;0.10;;;;;;;6.21;57.59;102681.88;5024351;28;20050;-39
2024/01/30 03:39:38;;;;;;;0.10;0.10;;;;;;;6.19;57.24;102686.25;5016347;28;20342;-45
2024/01/30 03:42:03;;;;;;;0.10;0.10;;;;;;;6.16;57.27;102689.75;5022013;28;20029;-39
2024/01/30 03:44:29;;;;;;;0.10;0.10;;;;;;;6.19;57.53;102699.31;5021736;28;20037;-37
2024/01/30 03:46:54;;;;;;;0.10;0.10;;;;;;;6.19;57.76;102694.97;5020457;28;20120;-44
2024/01/30 03:49:19;;;;;;;0.13;0.13;;;;;;;6.18;57.42;102682.78;5021176;28;20295;-44
2024/01/30 03:51:44;;;;;;;0.17;0.17;;;;;;;6.16;57.54;102688.88;5019078;28;20117;-49
2024/01/30 03:54:10;;;;;;;0.10;0.10;;;;;;;6.15;57.47;102685.41;5022629;28;20044;-45
2024/01/30 03:56:35;;;;;;;0.10;0.10;;;;;;;6.16;57.80;102688.88;5027976;28;20033;-45
2024/01/30 03:59:02;;;;;;;0.10;0.10;;;;;;;6.14;58.03;102685.41;5019370;28;20338;-46
2024/01/30 04:01:27;;;;;;;0.25;0.25;;;;;;;6.13;57.93;102683.66;5024063;28;20033;-47
2024/01/30 04:03:53;;;;;;;0.13;0.13;;;;;;;6.07;57.57;102685.47;5025262;28;20033;-47
2024/01/30 04:06:18;;;;;;;0.10;0.10;;;;;;;6.05;58.18;102674.16;5017167;28;20504;-46
2024/01/30 04:08:43;;;;;;;0.10;0.10;;;;;;;6.05;58.21;102682.00;5017306;28;20030;-46
2024/01/30 04:11:08;;;;;;;0.10;0.10;;;;;;;6.04;57.99;102685.50;5023266;28;20402;-45
2024/01/30 04:13:34;;;;;;;0.10;0.10;;;;;;;6.00;57.96;102686.38;5015595;28;20033;-45
2024/01/30 04:16:03;;;;;;;0.10;0.10;;;;;;;6.00;58.37;102689.00;5018325;28;20306;-47
2024/01/30 04:18:29;;;;;;;0.10;0.10;;;;;;;5.97;58.29;102689.00;5021823;28;20410;-46
2024/01/30 04:20:54;;;;;;;0.10;0.10;;;;;;;5.92;58.32;102685.56;5016925;28;20040;-47
2024/01/30 04:23:19;;;;;;;0.10;0.10;;;;;;;5.90;57.56;102697.75;5020667;28;20037;-45
2024/01/30 04:25:45;;;;;;;0.17;0.17;;;;;;;5.87;58.34;102692.53;5021261;28;20069;-47
2024/01/30 04:28:12;;;;;;;0.13;0.13;;;;;;;5.88;58.24;102691.66;5021954;28;20116;-47
2024/01/30 04:30:37;;;;;;;0.10;0.10;;;;;;;5.87;58.44;102698.66;5018773;28;21080;-47
2024/01/30 04:33:03;;;;;;;0.10;0.10;;;;;;;5.87;58.23;102687.31;5020790;28;20030;-44
2024/01/30 04:35:28;;;;;;;0.10;0.10;;;;;;;5.84;58.26;102689.94;5016998;28;20029;-46
2024/01/30 04:37:53;;;;;;;0.13;0.13;;;;;;;5.85;58.24;102689.06;5024559;28;20033;-44
2024/01/30 04:40:20;;;;;;;0.10;0.10;;;;;;;5.83;58.33;102685.59;5021483;28;20125;-49
2024/01/30 04:42:45;;;;;;;0.10;0.10;;;;;;;5.84;58.59;102689.94;5024463;28;20037;-44
2024/01/30 04:45:12;;;;;;;0.10;0.10;;;;;;;5.84;58.19;102695.16;5020665;28;20036;-48
2024/01/30 04:47:38;;;;;;;0.10;0.10;;;;;;;5.85;58.82;102689.06;5025209;28;20280;-48
2024/01/30 04:50:04;;;;;;;0.10;0.10;;;;;;;5.86;58.40;102690.81;5023294;28;20026;-45
2024/01/30 04:52:30;;;;;;;0.10;0.10;;;;;;;5.88;58.86;102699.50;5027669;28;20090;-48
2024/01/30 04:54:55;;;;;;;0.20;0.20;;;;;;;5.82;58.80;102700.41;5024581;28;20033;-49
2024/01/30 04:57:20;;;;;;;0.13;0.13;;;;;;;5.83;58.67;102699.53;5014031;28;20053;-46
2024/01/30 04:59:46;;;;;;;0.20;0.20;;;;;;;5.83;58.69;102691.72;5014580;28;20041;-46
2024/01/30 05:02:11;;;;;;;0.10;0.10;;;;;;;5.86;58.66;102693.41;5007805;28;20537;-45
2024/01/30 05:04:36;;;;;;;0.20;0.20;;;;;;;5.84;58.44;102692.56;5026927;28;20025;-45
2024/01/30 05:07:02;;;;;;;0.10;0.10;;;;;;;5.87;59.05;102697.78;5022738;28;20544;-46
2024/01/30 05:09:28;;;;;;;0.20;0.20;;;;;;;5.87;58.48;102687.31;5026864;28;20037;-46
2024/01/30 05:11:53;;;;;;;0.10;0.10;;;;;;;5.84;58.37;102692.56;5029563;28;20029;-46
2024/01/30 05:14:18;;;;;;;0.20;0.20;;;;;;;5.81;58.71;102688.22;5026194;28;20127;-45
2024/01/30 05:16:46;;;;;;;0.25;0.13;;;;;;;5.82;58.58;102689.13;5022188;28;20037;-46
2024/01/30 05:19:12;;;;;;;0.13;0.13;;;;;;;5.80;58.50;102682.16;5012936;28;20124;-46
2024/01/30 05:21:37;;;;;;;0.30;0.22;;;;;;;5.81;58.66;102683.00;5022227;28;20148;-45
2024/01/30 05:24:03;;;;;;;0.10;0.10;;;;;;;5.79;58.66;102682.16;5022147;28;20041;-47
2024/01/30 05:26:28;;;;;;;0.22;0.22;;;;;;;5.82;58.84;102681.28;5018801;28;20292;-45
2024/01/30 05:28:53;;;;;;;0.22;0.22;;;;;;;5.80;58.91;102684.75;5021800;28;20034;-47
2024/01/30 05:31:19;;;;;;;0.10;0.10;;;;;;;5.77;58.80;102684.78;5011591;28;20068;-48
2024/01/30 05:33:44;;;;;;;0.28;0.28;;;;;;;5.79;58.96;102687.38;5016418;28;20133;-46
2024/01/30 05:36:12;;;;;;;0.20;0.20;;;;;;;5.77;58.85;102679.56;5012847;28;20042;-48
2024/01/30 05:38:37;;;;;;;0.10;0.10;;;;;;;5.76;59.26;102684.78;5021223;28;20500;-49
2024/01/30 05:41:03;;;;;;;0.20;0.20;;;;;;;5.71;58.96;102682.19;5009153;28;20037;-48
2024/01/30 05:43:28;;;;;;;0.10;0.10;;;;;;;5.67;59.06;102685.72;5014484;28;20030;-48
2024/01/30 05:45:53;;;;;;;0.10;0.10;;;;;;;5.64;59.23;102681.34;5015040;28;20037;-46
2024/01/30 05:48:19;;;;;;;0.10;0.10;;;;;;;5.62;59.38;102687.47;5018022;28;20648;-48
2024/01/30 05:50:45;;;;;;;0.10;0.10;;;;;;;5.62;59.52;102687.47;5019496;28;20041;-48
2024/01/30 05:53:10;;;;;;;0.10;0.10;;;;;;;5.62;59.43;102687.47;5018324;28;20647;-48
2024/01/30 05:55:36;;;;;;;0.22;0.22;;;;;;;5.55;59.95;102681.44;5021204;28;20041;-49
2024/01/30 05:58:01;;;;;;;0.10;0.10;;;;;;;5.54;59.45;102679.69;5026206;28;20041;-46
2024/01/30 06:00:26;;;;;;;0.10;0.10;;;;;;;5.52;59.35;102680.59;5020382;28;20038;-45
2024/01/30 06:02:52;;;;;;;0.10;0.10;;;;;;;5.49;59.40;102677.09;5032879;28;20307;-46
2024/01/30 06:05:17;;;;;;;0.10;0.10;;;;;;;5.49;59.76;102677.09;5032685;28;20462;-45
2024/01/30 06:07:42;;;;;;;0.20;0.20;;;;;;;5.49;59.81;102677.09;5028142;28;20125;-46
2024/01/30 06:10:08;;;;;;;0.20;0.20;;;;;;;5.49;60.07;102671.00;5019669;28;20069;-46
2024/01/30 06:12:34;;;;;;;0.10;0.10;;;;;;;5.52;59.78;102675.38;5028445;28;20099;-47
2024/01/30 06:15:00;;;;;;;0.20;0.20;;;;;;;5.55;59.97;102680.53;5030364;28;20033;-47
2024/01/30 06:17:25;;;;;;;0.13;0.13;;;;;;;5.55;59.98;102678.81;5027583;28;20072;-45
2024/01/30 06:19:50;;;;;;;0.10;0.10;;;;;;;5.57;60.14;102676.19;5024649;28;20488;-46
2024/01/30 06:22:16;;;;;;;0.10;0.10;;;;;;;5.59;59.98;102677.03;5028768;28;20404;-46
2024/01/30 06:24:41;;;;;;;0.20;0.20;;;;;;;5.60;60.12;102677.03;5025270;28;20041;-47
2024/01/30 06:27:07;;;;;;;3.30;3.20;;;;;;;5.62;59.91;102677.88;5025991;28;20083;-46
2024/01/30 06:29:32;;;;;;;0.10;0.10;;;;;;;5.62;59.94;102677.03;5021378;28;20037;-47
2024/01/30 06:31:57;;;;;;;0.10;0.10;;;;;;;5.62;59.88;102671.81;5024499;28;20091;-42
2024/01/30 06:34:22;;;;;;;0.10;0.10;;;;;;;5.61;60.21;102670.06;5026637;28;20108;-42
2024/01/30 06:36:48;;;;;;;0.10;0.10;;;;;;;5.61;60.33;102670.94;5027702;28;20338;-41
2024/01/30 06:39:13;;;;;;;0.10;0.10;;;;;;;5.63;60.13;102676.16;5029147;28;20057;-40
2024/01/30 06:41:38;;;;;;;0.10;0.10;;;;;;;5.64;60.21;102675.28;5022984;28;20511;-37
2024/01/30 06:44:06;;;;;;;0.10;0.10;;;;;;;5.61;60.42;102675.28;5026465;28;20283;-36
2024/01/30 06:46:32;;;;;;;0.10;0.10;;;;;;;5.62;60.23;102674.41;5031959;28;20031;-36
2024/01/30 06:48:57;;;;;;;0.10;0.10;;;;;;;5.61;59.80;102673.53;5033467;28;20025;-37
2024/01/30 06:51:23;;;;;;;0.10;0.10;;;;;;;5.62;59.92;102677.03;5033751;28;20032;-37
2024/01/30 06:53:48;;;;;;;0.10;0.10;;;;;;;5.62;60.23;102671.81;5034594;28;20029;-37
2024/01/30 06:56:13;;;;;;;0.10;0.10;;;;;;;5.64;60.18;102677.91;5028547;28;20052;-35
2024/01/30 06:58:39;;;;;;;0.10;0.10;;;;;;;5.63;60.52;102670.94;5028464;28;20443;-38
2024/01/30 07:01:04;;;;;;;0.30;0.30;;;;;;;5.66;60.59;102673.53;5030403;28;20029;-35
2024/01/30 07:03:29;;;;;;;2.83;2.72;;;;;;;5.67;60.46;102674.38;5027083;28;20035;-36
2024/01/30 07:05:55;;;;;;;0.10;0.10;;;;;;;5.68;60.40;102676.97;5021802;28;20593;-36
2024/01/30 07:08:20;;;;;;;13.20;12.65;;;;;;;5.71;60.23;102671.75;5027400;28;20295;-38
2024/01/30 07:10:46;;;;;;;0.45;0.45;;;;;;;5.73;60.26;102664.75;5027855;28;20040;-37
2024/01/30 07:13:11;;;;;;;0.10;0.10;;;;;;;5.77;60.47;102679.56;5027973;28;20029;-37
2024/01/30 07:15:37;;;;;;;0.10;0.10;;;;;;;5.80;60.25;102670.81;5027217;28;20032;-36
2024/01/30 07:18:04;;;;;;;0.10;0.10;;;;;;;5.83;60.22;102680.38;5027052;28;20029;-36
2024/01/30 07:20:30;;;;;;;0.10;0.10;;;;;;;5.82;60.46;102673.44;5028463;28;20029;-38
2024/01/30 07:22:55;;;;;;;0.10;0.10;;;;;;;5.86;60.07;102675.13;5027974;28;20581;-37
2024/01/30 07:25:21;;;;;;;0.10;0.10;;;;;;;5.89;60.42;102668.16;5029830;28;20099;-35
2024/01/30 07:27:46;;;;;;;0.10;0.10;;;;;;;5.93;60.53;102667.25;5028707;28;20047;-37
2024/01/30 07:30:12;;;;;;;0.10;0.10;;;;;;;5.93;59.97;102671.63;5021944;28;20034;-38
2024/01/30 07:32:37;;;;;;;0.10;0.10;;;;;;;5.99;59.96;102668.94;5027186;28;20132;-37
2024/01/30 07:35:03;;;;;;;0.10;0.10;;;;;;;6.02;60.40;102671.56;5023598;28;20060;-38
2024/01/30 07:37:28;;;;;;;0.10;0.10;;;;;;;6.03;60.23;102672.44;5027102;28;20267;-38
2024/01/30 07:39:54;;;;;;;0.10;0.10;;;;;;;6.04;60.36;102671.56;5022831;28;20041;-37
2024/01/30 07:42:19;;;;;;;0.10;0.10;;;;;;;6.07;59.94;102666.28;5026121;28;20033;-38
2024/01/30 07:44:44;;;;;;;0.10;0.10;;;;;;;6.04;60.50;102675.03;5021794;28;20318;-36
2024/01/30 07:47:09;;;;;;;0.13;0.13;;;;;;;6.05;60.10;102668.94;5019080;28;20034;-38
2024/01/30 07:49:34;;;;;;;5.40;5.20;;;;;;;6.08;60.22;102662.81;5022511;28;20272;-37
2024/01/30 07:52:00;;;;;;;0.10;0.10;;;;;;;6.08;60.07;102661.06;5022146;28;20506;-37
2024/01/30 07:54:25;;;;;;;0.10;0.10;;;;;;;6.14;60.41;102661.88;5025952;28;20387;-37
2024/01/30 07:56:50;;;;;;;0.10;0.10;;;;;;;6.13;60.00;102660.16;5027287;28;20064;-44
2024/01/30 07:59:16;;;;;;;0.10;0.10;;;;;;;6.14;59.99;102649.69;5027330;28;20132;-42
2024/01/30 08:01:41;;;;;;;0.10;0.10;;;;;;;6.18;59.81;102648.81;5026847;28;20770;-46
2024/01/30 08:04:06;;;;;;;0.10;0.10;;;;;;;6.21;59.92;102653.97;5022175;28;20111;-45
2024/01/30 08:06:32;;;;;;;0.10;0.10;;;;;;;6.28;60.20;102652.16;5023352;28;20037;-47
2024/01/30 08:08:59;;;;;;;0.10;0.10;;;;;;;6.33;60.33;102650.41;5022710;28;21001;-46
2024/01/30 08:11:26;;;;;;;0.10;0.10;;;;;;;6.36;60.41;102650.38;5022504;28;20116;-47
2024/01/30 08:13:52;;;;;;;0.20;0.20;;;;;;;6.39;60.01;102655.56;5023850;28;20034;-50
2024/01/30 08:16:18;;;;;;;0.63;0.63;;;;;;;6.44;60.19;102652.03;5022549;28;20061;-47
2024/01/30 08:18:43;;;;;;;0.10;0.10;;;;;;;6.49;59.87;102647.63;5024313;28;20068;-47
2024/01/30 08:21:09;;;;;;;0.10;0.10;;;;;;;6.53;60.01;102638.88;5012182;28;20059;-46
2024/01/30 08:23:34;;;;;;;0.10;0.10;;;;;;;6.57;59.84;102637.97;5020378;28;20025;-46
2024/01/30 08:25:59;;;;;;;0.10;0.10;;;;;;;6.65;60.24;102641.34;5026968;28;20120;-46
2024/01/30 08:28:26;;;;;;;0.10;0.10;;;;;;;6.72;60.03;102644.78;5024916;28;20540;-46
2024/01/30 08:30:51;;;;;;;0.10;0.10;;;;;;;6.83;59.89;102644.66;5019837;28;20041;-48
2024/01/30 08:33:16;;;;;;;0.10;0.10;;;;;;;6.82;59.71;102640.31;5025362;28;20056;-46
2024/01/30 08:35:42;;;;;;;0.10;0.10;;;;;;;6.87;59.90;102643.75;5025345;28;20460;-47
2024/01/30 08:38:07;;;;;;;0.10;0.10;;;;;;;6.91;59.75;102640.19;5024747;28;20848;-46
2024/01/30 08:40:33;;;;;;;0.10;0.10;;;;;;;6.93;59.50;102646.28;5022824;28;20036;-47
2024/01/30 08:42:58;;;;;;;0.10;0.10;;;;;;;6.93;59.50;102643.66;5024494;28;20036;-46
2024/01/30 08:45:23;;;;;;;0.03;0.03;;;;;;;6.96;59.62;102646.25;5019604;28;20104;-46
2024/01/30 08:47:49;;;;;;;0.00;0.00;;;;;;;6.97;59.67;102642.75;5017790;28;20029;-47
2024/01/30 08:50:14;;;;;;;0.10;0.10;;;;;;;7.00;59.70;102637.47;5023273;28;20029;-46
2024/01/30 08:52:39;;;;;;;0.10;0.10;;;;;;;7.05;59.28;102629.56;5023306;28;20063;-47
2024/01/30 08:55:05;;;;;;;0.10;0.10;;;;;;;7.07;59.39;102632.16;5023668;28;20029;-46
2024/01/30 08:57:30;;;;;;;0.10;0.10;;;;;;;7.10;59.23;102637.34;5021444;28;20046;-46
2024/01/30 08:59:56;;;;;;;0.10;0.10;;;;;;;7.14;59.29;102631.19;5018137;28;20029;-47
2024/01/30 09:02:21;;;;;;;0.10;0.10;;;;;;;7.16;59.39;102630.28;5026060;28;20309;-46
2024/01/30 09:04:46;;;;;;;0.10;0.10;;;;;;;7.21;59.25;102638.06;5019194;28;20033;-46
2024/01/30 09:07:13;;;;;;;0.10;0.10;;;;;;;7.25;59.31;102642.41;5023121;28;20449;-47
2024/01/30 09:09:41;;;;;;;0.10;0.10;;;;;;;7.32;59.42;102644.06;5025057;28;20443;-47
2024/01/30 09:12:09;;;;;;;0.10;0.10;;;;;;;7.39;59.39;102649.19;5021658;28;20536;-46
2024/01/30 09:14:35;;;;;;;0.10;0.10;;;;;;;7.43;59.15;102651.75;5022979;28;20091;-47
2024/01/30 09:17:01;;;;;;;0.10;0.10;;;;;;;7.47;58.90;102647.34;5023736;28;20034;-46
2024/01/30 09:19:26;;;;;;;0.10;0.10;;;;;;;7.51;59.43;102651.63;5023206;28;20037;-46
2024/01/30 09:21:51;;;;;;;0.10;0.10;;;;;;;7.55;59.49;102655.09;5020630;28;20040;-47
2024/01/30 09:24:17;;;;;;;0.10;0.10;;;;;;;7.57;59.55;102643.69;5020603;28;20689;-46
2024/01/30 09:26:42;;;;;;;0.10;0.10;;;;;;;7.61;58.48;102650.63;5027039;28;20033;-47
2024/01/30 09:29:07;;;;;;;0.10;0.10;;;;;;;7.66;58.65;102655.81;5027161;28;20055;-46
2024/01/30 09:31:32;;;;;;;0.10;0.10;;;;;;;7.69;58.72;102647.03;5030750;28;20260;-47
2024/01/30 09:33:58;;;;;;;0.10;0.10;;;;;;;7.72;58.66;102646.97;5029204;28;20557;-48
2024/01/30 09:36:23;;;;;;;0.10;0.10;;;;;;;7.76;59.05;102643.44;5032197;28;20285;-48
2024/01/30 09:38:48;;;;;;;0.10;0.10;;;;;;;7.80;59.09;102639.84;5027035;28;20065;-48
2024/01/30 09:41:15;;;;;;;0.10;0.10;;;;;;;7.85;59.13;102634.56;5030782;28;20037;-47
2024/01/30 09:43:48;;;;;;;0.10;0.10;;;;;;;7.89;58.98;102634.47;5026568;28;20045;-48
2024/01/30 09:46:16;;;;;;;0.10;0.10;;;;;;;7.94;58.92;102632.63;5025580;28;20029;-47
2024/01/30 09:48:42;;;;;;;0.10;0.10;;;;;;;7.98;58.63;102627.34;5023465;28;20067;-48
2024/01/30 09:51:09;;;;;;;0.10;0.10;;;;;;;8.04;58.92;102633.34;5026476;28;20072;-46
2024/01/30 09:53:35;;;;;;;0.10;0.10;;;;;;;8.07;58.39;102632.47;5024787;28;20022;-48
2024/01/30 09:56:02;;;;;;;0.10;0.10;;;;;;;8.09;57.91;102638.53;5025685;28;20407;-47
2024/01/30 09:58:27;;;;;;;0.10;0.10;;;;;;;8.13;58.56;102637.56;5025091;28;20109;-46
2024/01/30 10:00:53;;;;;;;0.10;0.10;;;;;;;8.17;58.60;102634.03;5023942;28;20124;-46
2024/01/30 10:03:19;;;;;;;0.10;0.10;;;;;;;8.22;58.59;102628.69;5022444;28;20291;-47
2024/01/30 10:05:51;;;;;;;0.20;0.20;;;;;;;8.27;58.49;102631.22;5021148;28;20028;-47
2024/01/30 10:08:17;;;;;;;0.10;0.10;;;;;;;8.30;58.51;102623.31;5028232;28;20040;-47
2024/01/30 10:10:46;;;;;;;0.10;0.10;;;;;;;8.37;58.52;102630.19;5024455;28;20049;-46
2024/01/30 10:13:11;;;;;;;0.08;0.08;;;;;;;8.42;58.55;102616.97;5024814;28;20033;-48
2024/01/30 10:15:38;;;;;;;0.10;0.10;;;;;;;8.48;58.29;102620.38;5023468;28;20021;-45
2024/01/30 10:18:08;;;;;;;0.10;0.10;;;;;;;8.51;57.97;102617.72;5020677;28;20396;-48
2024/01/30 10:20:34;;;;;;;0.00;0.00;;;;;;;8.55;58.11;102618.50;5029114;28;20021;-46
2024/01/30 10:22:59;;;;;;;0.00;0.00;;;;;;;8.57;57.95;102615.84;5025209;28;20032;-45
2024/01/30 10:25:26;;;;;;;0.10;0.10;;;;;;;8.58;57.76;102607.97;5027767;28;20369;-40
2024/01/30 10:27:55;;;;;;;0.10;0.10;;;;;;;8.58;56.97;102609.69;5028788;28;20523;-41
2024/01/30 10:30:21;;;;;;;0.10;0.10;;;;;;;8.59;57.12;102600.94;5028829;28;20063;-39
2024/01/30 10:32:46;;;;;;;0.10;0.10;;;;;;;8.59;56.68;102601.81;5030148;28;20140;-40
2024/01/30 10:35:11;;;;;;;0.10;0.10;;;;;;;8.65;56.95;102598.19;5024423;28;20025;-43
2024/01/30 10:37:37;;;;;;;0.10;0.10;;;;;;;8.65;56.47;102598.19;5025287;28;20037;-43
2024/01/30 10:40:05;;;;;;;0.10;0.10;;;;;;;8.70;57.00;102598.97;5026905;28;20095;-41
2024/01/30 10:42:32;;;;;;;0.10;0.10;;;;;;;8.75;56.76;102605.00;5022461;28;20029;-38
2024/01/30 10:45:08;;;;;;;0.10;0.10;;;;;;;8.80;57.24;102597.91;5026133;28;20026;-40
2024/01/30 10:47:35;;;;;;;0.10;0.10;;;;;;;8.82;57.39;102598.72;5020967;28;20071;-39
2024/01/30 10:50:03;;;;;;;0.00;0.00;;;;;;;8.87;57.00;102587.25;5021649;28;20034;-39
2024/01/30 10:52:29;;;;;;;0.10;0.10;;;;;;;8.89;56.73;102588.09;5026192;28;20030;-38
2024/01/30 10:54:55;;;;;;;0.10;0.10;;;;;;;8.94;56.61;102578.34;5026548;28;20026;-38
2024/01/30 10:57:26;;;;;;;0.10;0.10;;;;;;;9.00;57.04;102579.09;5024426;28;20049;-41
2024/01/30 10:59:55;;;;;;;0.10;0.10;;;;;;;9.02;56.74;102576.41;5024109;28;20032;-41
2024/01/30 11:02:23;;;;;;;0.10;0.10;;;;;;;9.10;57.40;102579.75;4997359;28;23050;-40
2024/01/30 11:04:49;;;;;;;0.10;0.10;;;;;;;9.16;56.76;102578.75;5007703;28;20068;-40
2024/01/30 11:07:18;;;;;;;0.10;0.10;;;;;;;9.20;56.83;102569.91;5017845;28;20045;-41
2024/01/30 11:09:54;;;;;;;0.10;0.10;;;;;;;9.28;56.75;102572.38;5014055;28;20029;-39
2024/01/30 11:12:25;;;;;;;0.10;0.10;;;;;;;9.33;56.96;102581.00;5018203;28;20493;-40
2024/01/30 11:15:07;;;;;;;0.10;0.10;;;;;;;9.40;56.08;102569.44;5021811;28;20610;-40
2024/01/30 11:17:49;;;;;;;0.10;0.10;;;;;;;9.48;56.94;102564.00;5014377;28;20152;-40
2024/01/30 11:20:31;;;;;;;0.00;0.00;;;;;;;9.52;56.65;102565.69;5019337;28;20376;-39
2024/01/30 11:22:57;;;;;;;0.10;0.10;;;;;;;9.51;55.72;102560.44;5021961;28;20048;-39
2024/01/30 11:25:24;;;;;;;0.10;0.10;;;;;;;9.58;55.20;102564.66;5014724;28;20026;-39
2024/01/30 11:27:52;;;;;;;0.00;0.00;;;;;;;9.65;55.41;102560.97;5021192;28;20045;-39